Time;durP1;ratioP1;P1;durP2;ratioP2;P2;SDS_P1;SDS_P2;PMS_P1;PMS_P2;Temp;Humidity;BMP_temperature;BMP_pressure;BME280_temperature;BME280_humidity;BME280_pressure;Samples;Min_cycle;Max_cycle;Signal;HPM_P1;HPM_P2
2022/08/28 00:00:17;;;;;;;8.15;3.25;;;;;;;16.35;70.58;101851.19;5040004;28;20021;-72
2022/08/28 00:02:45;;;;;;;9.23;3.70;;;;;;;16.37;70.90;101856.38;5038431;28;20037;-72
2022/08/28 00:05:11;;;;;;;12.10;4.10;;;;;;;16.33;70.94;101857.41;5052607;28;20049;-72
2022/08/28 00:07:37;;;;;;;8.80;3.95;;;;;;;16.30;71.01;101857.50;5052151;28;20029;-72
2022/08/28 00:10:05;;;;;;;11.23;4.35;;;;;;;16.24;70.50;101868.19;5043266;28;20018;-73
2022/08/28 00:12:30;;;;;;;8.80;3.78;;;;;;;16.14;70.57;101857.94;5037623;28;20036;-72
2022/08/28 00:14:56;;;;;;;11.85;4.10;;;;;;;16.15;70.74;101864.06;5044684;28;20040;-73
2022/08/28 00:17:21;;;;;;;8.63;3.65;;;;;;;16.07;71.19;101861.69;5052238;28;20021;-72
2022/08/28 00:19:46;;;;;;;12.45;4.38;;;;;;;16.07;71.69;101871.34;5050091;28;20033;-72
2022/08/28 00:22:12;;;;;;;12.40;4.13;;;;;;;16.01;71.57;101866.25;5052664;28;20392;-72
2022/08/28 00:24:37;;;;;;;6.30;4.10;;;;;;;16.00;72.67;101870.66;5044989;28;20404;-72
2022/08/28 00:29:46;;;;;;;9.13;3.80;;;;;;;15.82;72.39;101865.94;5051660;28;20083;-72
2022/08/28 00:32:12;;;;;;;12.02;4.28;;;;;;;15.67;72.92;101873.38;5052373;28;20040;-72
2022/08/28 00:34:38;;;;;;;9.95;4.50;;;;;;;15.55;73.44;101864.94;5042231;28;20468;-72
2022/08/28 00:37:05;;;;;;;10.65;4.35;;;;;;;15.58;74.04;101875.34;5049689;28;20028;-72
2022/08/28 00:39:31;;;;;;;10.90;4.38;;;;;;;15.53;74.37;101875.50;5036288;28;20139;-72
2022/08/28 00:41:56;;;;;;;15.48;4.60;;;;;;;15.41;73.97;101865.31;5049509;28;20575;-72
2022/08/28 00:44:24;;;;;;;10.00;4.32;;;;;;;15.34;74.46;101864.63;5041263;28;20032;-72
2022/08/28 00:46:52;;;;;;;9.65;4.72;;;;;;;15.38;75.27;101866.25;5048116;28;20041;-72
2022/08/28 00:49:21;;;;;;;9.30;4.20;;;;;;;15.35;75.14;101878.63;5045182;28;20465;-72
2022/08/28 00:54:38;;;;;;;11.23;4.45;;;;;;;15.24;76.11;101868.41;5040260;28;20052;-72
2022/08/28 00:57:07;;;;;;;9.40;4.50;;;;;;;15.20;75.43;101875.50;5047961;28;20036;-72
2022/08/28 00:59:33;;;;;;;12.20;4.30;;;;;;;15.16;76.10;101884.34;5047349;28;20479;-72
2022/08/28 01:01:59;;;;;;;9.88;4.68;;;;;;;15.13;76.27;101881.78;5051258;28;20082;-72
2022/08/28 01:04:27;;;;;;;11.50;4.85;;;;;;;15.08;76.32;101881.06;5049285;28;20060;-72
2022/08/28 01:06:54;;;;;;;10.77;4.70;;;;;;;15.12;76.99;101884.47;5051773;28;20025;-72
2022/08/28 01:09:23;;;;;;;12.25;5.22;;;;;;;15.08;77.02;101893.34;5045524;28;20966;-72
2022/08/28 01:11:51;;;;;;;11.57;4.40;;;;;;;15.09;76.98;101890.66;5051630;28;20465;-72
2022/08/28 01:14:21;;;;;;;11.45;4.75;;;;;;;15.11;77.01;101894.13;5046291;28;20485;-72
2022/08/28 01:16:51;;;;;;;12.80;5.40;;;;;;;15.02;76.83;101878.59;5051175;28;20131;-72
2022/08/28 01:19:25;;;;;;;11.88;4.82;;;;;;;15.02;77.02;101889.09;5046629;28;20053;-72
2022/08/28 01:22:28;;;;;;;12.07;4.88;;;;;;;15.04;76.78;101892.56;5040192;28;20434;-72
2022/08/28 01:24:55;;;;;;;12.30;4.95;;;;;;;15.00;78.04;101885.63;5029083;28;20048;-72
2022/08/28 01:27:22;;;;;;;12.30;4.40;;;;;;;14.98;77.66;101888.31;5046148;28;20034;-73
2022/08/28 01:29:48;;;;;;;10.65;4.30;;;;;;;14.92;77.69;101888.47;5026026;28;20029;-72
2022/08/28 01:32:25;;;;;;;13.00;4.47;;;;;;;14.88;77.24;101892.06;5045075;28;20397;-72
2022/08/28 01:34:51;;;;;;;10.50;5.30;;;;;;;14.86;78.13;101896.50;5045591;28;20021;-72
2022/08/28 01:37:16;;;;;;;11.70;4.50;;;;;;;14.86;78.01;101898.25;5050281;28;20055;-72
2022/08/28 01:39:41;;;;;;;15.18;5.32;;;;;;;14.86;78.20;101893.88;5042724;28;20030;-72
2022/08/28 01:42:06;;;;;;;11.18;5.22;;;;;;;14.84;78.26;101900.03;5050815;28;20025;-72
2022/08/28 01:44:32;;;;;;;11.57;4.22;;;;;;;14.85;78.48;101900.03;5042716;28;20045;-72
2022/08/28 01:46:57;;;;;;;10.07;4.85;;;;;;;14.88;78.82;101904.34;5040571;28;20037;-72
2022/08/28 01:49:24;;;;;;;13.88;4.60;;;;;;;14.85;78.70;101907.91;5035396;28;20034;-72
2022/08/28 01:51:49;;;;;;;12.77;4.82;;;;;;;14.86;78.68;101904.38;5046151;28;20068;-72
2022/08/28 01:54:15;;;;;;;11.75;5.15;;;;;;;14.86;79.33;101903.50;5047210;28;20061;-72
2022/08/28 01:56:42;;;;;;;11.93;4.38;;;;;;;14.84;79.29;101910.56;5044752;28;20021;-72
2022/08/28 01:59:11;;;;;;;13.13;4.97;;;;;;;14.85;79.53;101909.66;5050273;28;20021;-72
2022/08/28 02:01:36;;;;;;;9.57;4.57;;;;;;;14.83;79.53;101907.06;5046770;28;20037;-72
2022/08/28 02:04:03;;;;;;;10.25;4.93;;;;;;;14.81;79.28;101900.13;5053376;28;20021;-72
2022/08/28 02:06:29;;;;;;;11.65;4.55;;;;;;;14.75;79.81;101895.91;5040708;28;20104;-72
2022/08/28 02:08:54;;;;;;;11.23;4.38;;;;;;;14.79;79.55;101904.56;5053970;28;20037;-72
2022/08/28 02:11:23;;;;;;;12.38;5.00;;;;;;;14.81;79.58;101906.22;5042262;28;20063;-72
2022/08/28 02:13:49;;;;;;;11.05;4.63;;;;;;;14.71;79.75;101908.25;5054649;28;20108;-72
2022/08/28 02:16:15;;;;;;;13.38;4.28;;;;;;;14.71;80.24;101915.22;5040172;28;20429;-72
2022/08/28 02:18:40;;;;;;;9.98;4.10;;;;;;;14.63;80.41;101918.03;5052615;28;20112;-72
2022/08/28 02:21:07;;;;;;;19.63;5.03;;;;;;;14.65;80.69;101918.88;5039656;28;20029;-72
2022/08/28 02:23:32;;;;;;;11.60;4.30;;;;;;;14.61;80.67;101916.34;5044354;28;20032;-72
2022/08/28 02:25:58;;;;;;;10.68;4.43;;;;;;;14.52;80.95;101910.44;5040548;28;20029;-72
2022/08/28 02:28:23;;;;;;;10.40;4.85;;;;;;;14.52;81.09;101920.06;5049359;28;20025;-72
2022/08/28 02:30:49;;;;;;;12.32;4.63;;;;;;;14.49;81.82;101917.47;5049133;28;20032;-72
2022/08/28 02:33:15;;;;;;;13.18;4.47;;;;;;;14.43;81.82;101918.47;5048597;28;20029;-72
2022/08/28 02:35:41;;;;;;;11.40;4.40;;;;;;;14.38;81.97;101915.06;5039151;28;20037;-72
2022/08/28 02:38:06;;;;;;;12.95;4.90;;;;;;;14.29;81.87;101915.28;5052650;28;20052;-72
2022/08/28 02:40:31;;;;;;;12.27;4.70;;;;;;;14.32;82.26;101924.84;5053604;28;20075;-72
2022/08/28 02:42:57;;;;;;;11.90;5.15;;;;;;;14.27;82.50;101923.19;5045678;28;20068;-72
2022/08/28 02:45:22;;;;;;;11.25;4.65;;;;;;;14.28;82.98;101917.03;5043076;28;20029;-72
2022/08/28 02:47:51;;;;;;;13.45;4.70;;;;;;;14.23;82.79;101912.81;5045347;28;20045;-72
2022/08/28 02:50:18;;;;;;;10.98;4.82;;;;;;;14.22;83.05;101916.31;5050016;28;20093;-72
2022/08/28 02:52:45;;;;;;;12.98;4.55;;;;;;;14.22;82.93;101914.56;5050047;28;20030;-72
2022/08/28 02:55:13;;;;;;;15.52;4.40;;;;;;;14.20;83.26;101916.34;5043700;28;20031;-72
2022/08/28 02:57:39;;;;;;;14.40;4.95;;;;;;;14.12;83.38;101926.13;5053992;28;20031;-72
2022/08/28 03:00:08;;;;;;;10.80;4.57;;;;;;;14.01;83.52;101917.63;5052279;28;20029;-72
2022/08/28 03:02:34;;;;;;;20.40;4.63;;;;;;;13.98;83.97;101918.53;5041345;28;20032;-72
2022/08/28 03:04:59;;;;;;;16.17;5.40;;;;;;;13.98;84.29;101921.16;5046344;28;20381;-72
2022/08/28 03:07:26;;;;;;;12.70;4.78;;;;;;;13.83;84.76;101913.59;5053506;28;20033;-72
2022/08/28 03:09:51;;;;;;;13.90;4.40;;;;;;;13.85;84.90;101921.47;5052863;28;20059;-72
2022/08/28 03:12:22;;;;;;;11.73;4.32;;;;;;;13.83;85.04;101921.47;5051645;28;20068;-72
2022/08/28 03:14:48;;;;;;;12.30;5.05;;;;;;;13.79;85.13;101931.16;5048285;28;20037;-72
2022/08/28 03:17:13;;;;;;;11.23;4.40;;;;;;;13.74;85.38;101925.16;5052936;28;20504;-72
2022/08/28 03:19:38;;;;;;;8.90;4.95;;;;;;;13.69;85.38;101926.13;5053808;28;20397;-72
2022/08/28 03:22:04;;;;;;;12.48;4.43;;;;;;;13.70;85.64;101933.09;5035035;28;20118;-72
2022/08/28 03:24:29;;;;;;;9.57;4.00;;;;;;;13.71;86.15;101935.69;5047121;28;20064;-72
2022/08/28 03:26:54;;;;;;;8.18;4.95;;;;;;;13.66;86.09;101934.91;5051981;28;20484;-72
2022/08/28 03:29:19;;;;;;;13.18;4.93;;;;;;;13.62;86.18;101937.63;5052793;28;20427;-72
2022/08/28 03:31:45;;;;;;;11.73;4.28;;;;;;;13.62;86.29;101932.38;5047432;28;20465;-72
2022/08/28 03:34:10;;;;;;;10.32;4.50;;;;;;;13.61;86.58;101939.38;5047753;28;20026;-72
2022/08/28 03:36:35;;;;;;;9.23;4.43;;;;;;;13.62;86.49;101946.34;5052662;28;20533;-72
2022/08/28 03:39:04;;;;;;;16.80;4.82;;;;;;;13.57;86.46;101941.19;5053120;28;20021;-72
2022/08/28 03:41:30;;;;;;;8.75;4.10;;;;;;;13.61;87.08;101943.75;5045558;28;20044;-72
2022/08/28 03:43:58;;;;;;;12.60;4.25;;;;;;;13.58;87.03;101955.16;5048131;28;20120;-72
2022/08/28 03:46:25;;;;;;;10.73;4.43;;;;;;;13.50;87.33;101947.41;5050911;28;20095;-72
2022/08/28 03:48:52;;;;;;;11.98;4.40;;;;;;;13.45;87.39;101941.41;5053182;28;20114;-71
2022/08/28 03:51:22;;;;;;;9.30;3.90;;;;;;;13.44;87.36;101947.56;5041981;28;20060;-72
2022/08/28 03:53:48;;;;;;;9.13;3.83;;;;;;;13.39;87.62;101948.50;5053516;28;20036;-72
2022/08/28 03:56:17;;;;;;;9.48;4.78;;;;;;;13.31;87.84;101953.91;5052674;28;20024;-72
2022/08/28 03:58:43;;;;;;;9.30;4.43;;;;;;;13.33;88.37;101954.72;5052631;28;20025;-72
2022/08/28 04:01:09;;;;;;;10.85;4.72;;;;;;;13.32;88.32;101948.63;5043047;28;20033;-72
2022/08/28 04:03:35;;;;;;;13.45;5.50;;;;;;;13.33;88.57;101950.34;5038662;28;20024;-72
2022/08/28 04:06:00;;;;;;;12.73;5.10;;;;;;;13.32;88.84;101948.63;5052191;28;20029;-72
2022/08/28 04:08:27;;;;;;;9.85;4.63;;;;;;;13.34;88.61;101946.84;5052720;28;20017;-72
2022/08/28 04:10:53;;;;;;;13.40;4.65;;;;;;;13.38;88.33;101952.03;5038759;28;20036;-72
2022/08/28 04:13:20;;;;;;;9.98;4.30;;;;;;;13.35;88.47;101958.19;5046428;28;20522;-72
2022/08/28 04:15:55;;;;;;;9.13;4.93;;;;;;;13.35;88.69;101948.56;5052888;28;20479;-72
2022/08/28 04:18:21;;;;;;;14.55;4.78;;;;;;;13.29;88.89;101938.19;5051945;28;20021;-72
2022/08/28 04:20:59;;;;;;;12.32;4.75;;;;;;;13.28;88.48;101941.72;5046924;28;20031;-72
2022/08/28 04:23:25;;;;;;;11.52;4.88;;;;;;;13.24;89.25;101954.84;5046755;28;20052;-72
2022/08/28 04:25:50;;;;;;;12.85;4.88;;;;;;;13.26;89.42;101948.72;5051755;28;20048;-72
2022/08/28 04:28:16;;;;;;;9.50;4.53;;;;;;;13.23;89.39;101951.34;5052037;28;20032;-72
2022/08/28 04:30:41;;;;;;;12.50;5.03;;;;;;;13.18;89.93;101958.44;5034885;28;20372;-72
2022/08/28 04:33:06;;;;;;;11.95;4.88;;;;;;;13.19;89.57;101962.78;5036218;28;20051;-72
2022/08/28 04:35:31;;;;;;;11.35;4.60;;;;;;;13.20;89.45;101959.25;5047976;28;20036;-72
2022/08/28 04:37:57;;;;;;;13.32;4.80;;;;;;;13.25;89.72;101967.09;5052552;28;20017;-72
2022/08/28 04:40:23;;;;;;;9.98;5.28;;;;;;;13.25;89.25;101964.47;5038225;28;20529;-72
2022/08/28 04:42:49;;;;;;;16.45;5.60;;;;;;;13.18;89.35;101957.56;5031662;28;20029;-72
2022/08/28 04:45:15;;;;;;;11.18;4.75;;;;;;;13.22;89.83;101964.50;5043670;28;20033;-72
2022/08/28 04:47:40;;;;;;;15.63;5.85;;;;;;;13.13;89.98;101957.63;5050856;28;20116;-72
2022/08/28 04:50:06;;;;;;;11.90;4.57;;;;;;;13.12;89.87;101955.91;5051990;28;20116;-72
2022/08/28 04:52:31;;;;;;;17.15;5.30;;;;;;;13.05;90.24;101963.00;5034280;28;20047;-72
2022/08/28 04:54:56;;;;;;;9.68;4.80;;;;;;;12.97;90.50;101950.91;5037749;28;20025;-72
2022/08/28 04:57:22;;;;;;;13.48;4.68;;;;;;;13.02;90.77;101970.06;5051611;28;20025;-72
2022/08/28 04:59:47;;;;;;;12.38;5.55;;;;;;;13.00;90.84;101972.66;5051865;28;20031;-72
2022/08/28 05:02:13;;;;;;;13.32;5.00;;;;;;;13.01;90.93;101974.41;5037911;28;20435;-72
2022/08/28 05:04:38;;;;;;;11.23;4.80;;;;;;;13.01;91.12;101973.53;5047825;28;20038;-72
2022/08/28 05:07:03;;;;;;;13.43;5.55;;;;;;;13.03;90.96;101977.00;5050913;28;20023;-72
2022/08/28 05:09:30;;;;;;;11.63;4.35;;;;;;;13.00;91.17;101967.44;5051196;28;20021;-72
2022/08/28 05:12:00;;;;;;;12.93;4.90;;;;;;;13.03;90.73;101988.34;5042714;28;20112;-72
2022/08/28 05:14:25;;;;;;;14.88;5.63;;;;;;;13.00;91.23;101984.91;5051238;28;20029;-72
2022/08/28 05:16:52;;;;;;;11.82;5.55;;;;;;;12.96;91.68;101986.69;5043336;28;20147;-72
2022/08/28 05:19:19;;;;;;;10.82;5.05;;;;;;;13.00;91.42;101992.75;5051383;28;20029;-72
2022/08/28 05:21:45;;;;;;;10.70;4.65;;;;;;;12.93;91.37;101991.97;5042982;28;20025;-72
2022/08/28 05:24:11;;;;;;;15.48;5.13;;;;;;;12.97;90.98;101998.03;5051057;28;20078;-71
2022/08/28 05:26:37;;;;;;;12.18;4.95;;;;;;;13.00;91.57;101998.84;5046306;28;20036;-72
2022/08/28 05:29:03;;;;;;;16.08;5.47;;;;;;;12.98;91.32;102005.00;5048825;28;20112;-72
2022/08/28 05:31:30;;;;;;;11.43;5.53;;;;;;;12.89;91.83;102001.63;5047435;28;20453;-72
2022/08/28 05:33:56;;;;;;;12.05;5.50;;;;;;;12.89;91.53;102006.88;5042094;28;20052;-72
2022/08/28 05:36:23;;;;;;;12.57;4.88;;;;;;;12.84;91.92;102008.69;5038251;28;20029;-72
2022/08/28 05:38:50;;;;;;;14.52;5.45;;;;;;;12.86;92.27;102009.53;5047247;28;20025;-72
2022/08/28 05:41:19;;;;;;;11.15;5.32;;;;;;;12.88;92.73;102007.78;5049432;28;20215;-72
2022/08/28 05:43:45;;;;;;;10.68;5.07;;;;;;;12.87;92.12;102006.00;5050729;28;20025;-72
2022/08/28 05:46:10;;;;;;;13.93;5.38;;;;;;;12.86;92.15;101998.19;5050889;28;20068;-72
2022/08/28 05:48:37;;;;;;;11.13;5.15;;;;;;;12.88;92.49;102007.78;5051404;28;20028;-72
2022/08/28 05:51:09;;;;;;;15.48;5.88;;;;;;;12.88;92.51;102004.25;5045097;28;20374;-72
2022/08/28 05:53:39;;;;;;;15.43;6.65;;;;;;;12.85;92.51;102009.53;5051359;28;20025;-72
2022/08/28 05:56:06;;;;;;;9.93;5.80;;;;;;;12.95;92.63;102015.50;5050850;28;20366;-72
2022/08/28 05:58:33;;;;;;;9.80;6.15;;;;;;;12.97;91.94;102011.13;5050559;28;20063;-72
2022/08/28 06:01:15;;;;;;;11.18;5.82;;;;;;;13.09;91.71;102014.44;5032636;28;20032;-72
2022/08/28 06:03:42;;;;;;;10.57;5.93;;;;;;;13.19;91.02;102016.91;5041659;28;20056;-72
2022/08/28 06:06:08;;;;;;;14.88;6.50;;;;;;;13.23;91.50;102024.69;5042324;28;20025;-72
2022/08/28 06:08:35;;;;;;;15.45;5.55;;;;;;;13.27;90.93;102023.75;5050898;28;20063;-72
2022/08/28 06:11:01;;;;;;;11.48;5.80;;;;;;;13.31;90.62;102027.22;5041408;28;20491;-72
2022/08/28 06:13:28;;;;;;;14.00;5.30;;;;;;;13.40;90.54;102020.97;5044901;28;20032;-72
2022/08/28 06:15:55;;;;;;;11.25;5.53;;;;;;;13.45;90.34;102021.75;5051194;28;20033;-72
2022/08/28 06:18:21;;;;;;;14.63;5.82;;;;;;;13.55;90.06;102023.34;5049887;28;20029;-72
2022/08/28 06:20:47;;;;;;;11.85;5.57;;;;;;;13.62;89.41;102029.31;5051361;28;20017;-72
2022/08/28 06:23:16;;;;;;;14.48;6.13;;;;;;;13.64;89.61;102023.19;5047337;28;20162;-72
2022/08/28 06:25:45;;;;;;;11.85;5.75;;;;;;;13.69;89.68;102020.47;5035002;28;20037;-72
2022/08/28 06:28:12;;;;;;;16.70;5.47;;;;;;;13.76;88.45;102025.56;5041729;28;20021;-72
2022/08/28 06:30:38;;;;;;;11.40;5.55;;;;;;;13.81;89.13;102022.88;5050800;28;20056;-72
2022/08/28 06:33:05;;;;;;;9.88;5.00;;;;;;;13.90;88.57;102027.09;5047876;28;20032;-72
2022/08/28 06:35:31;;;;;;;13.95;5.00;;;;;;;13.94;88.32;102029.63;5042103;28;20034;-72
2022/08/28 06:37:57;;;;;;;11.07;4.82;;;;;;;14.05;88.43;102032.03;5050891;28;20078;-72
2022/08/28 06:40:23;;;;;;;11.55;5.40;;;;;;;14.13;88.21;102038.00;5050121;28;20033;-72
2022/08/28 06:42:48;;;;;;;10.50;4.90;;;;;;;14.18;87.47;102041.38;5050805;28;20035;-72
2022/08/28 06:45:13;;;;;;;17.58;4.75;;;;;;;14.23;87.21;102031.69;5036304;28;20028;-72
2022/08/28 06:47:39;;;;;;;17.08;5.13;;;;;;;14.29;87.09;102039.44;5050383;28;20451;-72
2022/08/28 06:50:05;;;;;;;15.93;5.00;;;;;;;14.38;86.27;102048.00;5054139;28;20028;-72
2022/08/28 06:52:30;;;;;;;11.60;4.88;;;;;;;14.40;86.12;102039.22;5053548;28;20078;-72
2022/08/28 06:54:56;;;;;;;15.65;4.97;;;;;;;14.52;85.97;102046.88;5042023;28;20108;-72
2022/08/28 06:57:22;;;;;;;16.15;5.00;;;;;;;14.61;86.14;102045.78;5043221;28;20021;-73
2022/08/28 06:59:48;;;;;;;17.63;5.35;;;;;;;14.68;85.64;102044.78;5054130;28;20021;-72
2022/08/28 07:02:13;;;;;;;13.07;5.05;;;;;;;14.73;85.22;102040.28;5041044;28;20028;-72
2022/08/28 07:04:38;;;;;;;11.75;4.88;;;;;;;14.82;85.61;102048.88;5041580;28;20021;-72
2022/08/28 07:07:05;;;;;;;12.57;4.53;;;;;;;14.88;84.49;102046.97;5049675;28;20494;-72
2022/08/28 07:09:30;;;;;;;8.07;4.35;;;;;;;14.96;83.77;102041.56;5042119;28;20025;-72
2022/08/28 07:11:55;;;;;;;12.93;5.22;;;;;;;14.99;83.68;102046.72;5054072;28;20035;-72
2022/08/28 07:14:21;;;;;;;15.40;4.35;;;;;;;15.05;82.97;102040.47;5045575;28;20489;-72
2022/08/28 07:16:46;;;;;;;10.43;4.30;;;;;;;15.09;82.68;102036.88;5048614;28;20029;-72
2022/08/28 07:19:12;;;;;;;15.88;4.88;;;;;;;15.16;82.56;102044.56;5041220;28;20040;-72
2022/08/28 07:21:40;;;;;;;11.02;4.43;;;;;;;15.25;82.59;102042.63;5052896;28;20025;-72
2022/08/28 07:24:08;;;;;;;13.40;4.30;;;;;;;15.34;81.88;102052.94;5047799;28;20026;-72
2022/08/28 07:26:33;;;;;;;11.45;4.40;;;;;;;15.36;82.38;102037.97;5035087;28;20489;-72
2022/08/28 07:29:00;;;;;;;11.40;4.18;;;;;;;15.48;81.00;102042.09;5041921;28;20025;-72
2022/08/28 07:31:26;;;;;;;10.63;4.30;;;;;;;15.54;81.77;102050.69;5033393;28;20056;-72
2022/08/28 07:33:55;;;;;;;12.07;4.05;;;;;;;15.66;80.59;102045.16;5051578;28;20029;-72
2022/08/28 07:36:26;;;;;;;12.95;3.90;;;;;;;15.74;80.04;102051.97;5052273;28;20108;-72
2022/08/28 07:38:52;;;;;;;7.47;3.10;;;;;;;15.83;78.90;102057.00;5053749;28;20021;-72
2022/08/28 07:41:24;;;;;;;11.20;3.30;;;;;;;15.92;78.02;102064.63;5034000;28;20035;-72
2022/08/28 07:46:35;;;;;;;6.93;3.10;;;;;;;16.09;78.47;102067.69;5033186;28;20064;-72
2022/08/28 07:49:00;;;;;;;8.82;2.95;;;;;;;16.19;76.26;102067.44;5029331;28;20030;-72
2022/08/28 07:51:26;;;;;;;11.50;3.20;;;;;;;16.25;75.85;102073.41;5043634;28;20040;-72
2022/08/28 07:53:53;;;;;;;9.13;3.10;;;;;;;16.32;75.22;102060.94;5053336;28;20017;-72
2022/08/28 07:56:19;;;;;;;8.13;2.70;;;;;;;16.38;74.64;102056.34;5051419;28;20100;-74
2022/08/28 07:58:45;;;;;;;9.25;2.47;;;;;;;16.48;74.21;102062.22;5027004;28;20148;-74
2022/08/28 08:01:11;;;;;;;10.35;2.65;;;;;;;16.57;73.67;102067.19;5052844;28;20481;-74
2022/08/28 08:03:36;;;;;;;7.57;3.10;;;;;;;16.65;73.42;102059.09;5039191;28;20017;-74
2022/08/28 08:06:03;;;;;;;8.35;3.00;;;;;;;16.77;73.09;102074.53;5027570;28;20438;-74
2022/08/28 08:08:32;;;;;;;7.50;2.53;;;;;;;16.99;73.37;102074.75;5042305;28;20039;-74
2022/08/28 08:11:09;;;;;;;10.07;2.30;;;;;;;17.08;70.89;102078.91;5043680;28;20110;-74
2022/08/28 08:13:35;;;;;;;6.90;2.83;;;;;;;17.13;71.54;102069.06;5044239;28;20029;-74
2022/08/28 08:16:03;;;;;;;7.07;2.50;;;;;;;17.23;71.05;102069.63;5029243;28;20380;-73
2022/08/28 08:18:32;;;;;;;9.57;2.53;;;;;;;17.51;69.61;102067.84;5040246;28;20407;-75
2022/08/28 08:20:57;;;;;;;7.65;2.17;;;;;;;17.62;69.88;102063.97;5043480;28;20028;-74
2022/08/28 08:23:23;;;;;;;7.57;2.60;;;;;;;17.53;67.29;102075.72;5038502;28;20044;-74
2022/08/28 08:25:57;;;;;;;12.82;2.22;;;;;;;17.38;68.38;102077.06;5037162;28;20029;-74
2022/08/28 08:28:23;;;;;;;8.63;2.45;;;;;;;17.24;68.21;102074.88;5042331;28;20064;-74
2022/08/28 08:30:49;;;;;;;14.48;3.22;;;;;;;17.04;68.23;102088.66;5039969;28;20115;-73
2022/08/28 08:33:14;;;;;;;6.65;2.25;;;;;;;16.93;68.93;102090.75;5042536;28;20029;-73
2022/08/28 08:35:40;;;;;;;7.47;2.08;;;;;;;16.84;67.94;102086.66;5052130;28;20510;-73
2022/08/28 08:38:06;;;;;;;5.78;2.20;;;;;;;16.82;68.62;102090.22;5041527;28;20021;-73
2022/08/28 08:40:32;;;;;;;7.18;2.17;;;;;;;16.81;68.59;102088.50;5043928;28;20541;-73
2022/08/28 08:43:00;;;;;;;10.15;2.33;;;;;;;16.87;69.56;102080.41;5044581;28;20030;-73
2022/08/28 08:45:26;;;;;;;4.50;1.83;;;;;;;16.95;68.07;102090.72;5035037;28;20032;-73
2022/08/28 08:47:54;;;;;;;7.38;2.33;;;;;;;17.03;67.80;102088.69;5039881;28;20539;-73
2022/08/28 08:50:28;;;;;;;5.60;2.08;;;;;;;17.22;67.48;102083.72;5036633;28;20079;-72
2022/08/28 08:52:56;;;;;;;;;;;;;;;17.43;68.79;102075.16;5034305;28;20029;-72
2022/08/28 08:55:30;;;;;;;7.38;2.35;;;;;;;17.55;66.82;102076.50;5036962;28;19917;-73
2022/08/28 08:58:01;;;;;;;7.82;2.05;;;;;;;17.74;67.45;102072.34;5034976;28;20454;-74
2022/08/28 09:00:30;;;;;;;10.63;2.38;;;;;;;17.97;66.03;102074.22;5036780;28;20039;-74
2022/08/28 09:03:00;;;;;;;11.20;2.40;;;;;;;18.41;65.41;102065.63;5033868;28;20053;-74
2022/08/28 09:05:57;;;;;;;8.48;2.50;;;;;;;18.85;63.90;102065.78;5040371;28;20060;-74
2022/08/28 09:08:37;;;;;;;7.10;2.45;;;;;;;19.35;62.51;102066.38;5032770;28;20080;-74
2022/08/28 09:11:31;;;;;;;6.68;2.45;;;;;;;19.63;61.92;102066.16;5039942;28;20064;-74
2022/08/28 09:14:18;;;;;;;5.80;2.22;;;;;;;19.81;59.46;102063.63;5032228;28;20025;-74
2022/08/28 09:16:44;;;;;;;7.47;2.28;;;;;;;19.73;57.04;102068.41;5035467;28;20025;-74
2022/08/28 09:19:16;;;;;;;12.00;2.47;;;;;;;19.35;58.41;102071.66;5046240;28;20028;-74
2022/08/28 09:21:43;;;;;;;8.77;1.90;;;;;;;19.13;58.75;102068.19;5043800;28;20481;-74
2022/08/28 09:24:18;;;;;;;5.40;1.83;;;;;;;19.05;60.09;102064.97;5029584;28;20550;-74
2022/08/28 09:26:51;;;;;;;7.30;1.85;;;;;;;19.32;60.18;102068.28;5031076;28;20018;-74
2022/08/28 09:29:20;;;;;;;10.77;2.45;;;;;;;19.40;58.69;102079.44;5030624;28;20055;-74
2022/08/28 09:31:46;;;;;;;8.80;2.20;;;;;;;19.57;58.04;102076.94;5035552;28;20029;-74
2022/08/28 09:34:22;;;;;;;6.43;1.80;;;;;;;19.89;57.45;102066.84;5034594;28;20503;-74
2022/08/28 09:36:48;;;;;;;17.27;2.33;;;;;;;20.08;56.24;102073.03;5035430;28;20096;-74
2022/08/28 09:39:19;;;;;;;7.25;2.17;;;;;;;20.33;56.65;102064.84;5046338;28;20473;-74
2022/08/28 09:44:52;;;;;;;7.85;2.72;;;;;;;20.64;53.84;102068.81;5043075;28;20499;-75
2022/08/28 09:47:38;;;;;;;7.10;2.03;;;;;;;20.68;56.35;102059.78;5045036;28;20055;-74
2022/08/28 09:50:37;;;;;;;3.22;1.73;;;;;;;20.87;54.75;102066.88;5042428;28;20316;-74
2022/08/28 09:53:08;;;;;;;4.15;1.60;;;;;;;20.95;54.57;102067.34;5030901;28;20029;-75
2022/08/28 09:55:52;;;;;;;8.80;1.80;;;;;;;21.23;54.11;102058.94;5035278;28;20029;-71
2022/08/28 09:58:17;;;;;;;5.38;1.65;;;;;;;21.63;52.15;102059.63;5037650;28;20090;-72
2022/08/28 10:00:56;;;;;;;8.27;1.77;;;;;;;21.60;51.42;102068.59;5035892;28;20540;-72
2022/08/28 10:03:32;;;;;;;4.45;1.85;;;;;;;21.39;51.96;102059.94;5048849;28;20028;-73
2022/08/28 10:06:12;;;;;;;4.70;2.05;;;;;;;21.23;51.08;102066.88;5051546;28;20036;-73
2022/08/28 10:08:53;;;;;;;5.75;1.70;;;;;;;20.96;52.08;102077.00;5050548;28;20410;-72
2022/08/28 10:11:56;;;;;;;8.30;2.33;;;;;;;21.05;53.63;102079.22;5050253;28;20036;-72
2022/08/28 10:14:33;;;;;;;4.15;1.73;;;;;;;21.03;51.10;102078.47;5029573;28;20060;-73
2022/08/28 10:17:20;;;;;;;4.60;1.80;;;;;;;21.07;50.19;102074.72;5050771;28;20061;-72
2022/08/28 10:20:08;;;;;;;4.75;1.80;;;;;;;21.30;51.70;102062.16;5053863;28;20025;-73
2022/08/28 10:23:05;;;;;;;9.05;2.05;;;;;;;21.62;50.82;102061.44;5054547;28;20424;-73
2022/08/28 10:25:54;;;;;;;4.05;1.63;;;;;;;22.01;50.48;102062.09;5054223;28;20048;-72
2022/08/28 10:28:39;;;;;;;7.00;1.83;;;;;;;22.46;48.64;102064.13;5054515;28;20028;-73
2022/08/28 10:31:21;;;;;;;6.32;2.05;;;;;;;22.70;47.03;102064.63;5053886;28;20028;-73
2022/08/28 10:33:58;;;;;;;4.68;1.60;;;;;;;22.92;46.56;102066.91;5054364;28;20040;-73
2022/08/28 10:36:32;;;;;;;5.20;1.77;;;;;;;23.18;48.42;102057.47;5054130;28;20029;-73
2022/08/28 10:39:19;;;;;;;5.10;1.80;;;;;;;23.12;45.72;102066.69;5054075;28;20033;-73
2022/08/28 10:41:49;;;;;;;7.00;2.00;;;;;;;22.37;47.18;102065.50;5054509;28;20366;-73
2022/08/28 10:44:38;;;;;;;4.63;1.95;;;;;;;21.67;48.53;102063.84;5054236;28;20039;-72
2022/08/28 10:47:05;;;;;;;10.85;2.28;;;;;;;21.19;51.25;102062.66;5039201;28;20102;-72
2022/08/28 10:49:35;;;;;;;7.05;1.90;;;;;;;20.81;51.33;102068.00;5054069;28;20021;-73
2022/08/28 10:52:09;;;;;;;6.18;2.13;;;;;;;20.97;52.72;102062.84;5053884;28;20079;-72
2022/08/28 10:54:44;;;;;;;7.38;2.17;;;;;;;21.42;50.65;102075.69;5053294;28;20029;-73
2022/08/28 10:57:27;;;;;;;7.32;2.20;;;;;;;21.68;49.36;102060.22;5053978;28;20028;-73
2022/08/28 10:59:53;;;;;;;4.25;1.70;;;;;;;22.27;49.15;102064.28;5053774;28;20021;-73
2022/08/28 11:02:21;;;;;;;4.53;1.40;;;;;;;22.96;46.25;102059.69;5053665;28;20484;-73
2022/08/28 11:04:47;;;;;;;6.90;1.92;;;;;;;23.55;45.01;102061.53;5053790;28;20048;-73
2022/08/28 11:07:25;;;;;;;4.75;1.77;;;;;;;23.78;44.32;102062.03;5053577;28;20052;-73
2022/08/28 11:09:50;;;;;;;5.43;1.75;;;;;;;23.54;44.25;102057.19;5054088;28;20040;-72
2022/08/28 11:12:15;;;;;;;4.65;1.60;;;;;;;23.52;44.34;102066.19;5053246;28;20013;-73
2022/08/28 11:14:44;;;;;;;5.27;1.60;;;;;;;23.15;44.46;102062.97;5053615;28;20027;-73
2022/08/28 11:17:38;;;;;;;6.72;2.10;;;;;;;22.61;46.85;102062.44;5053368;28;20017;-72
2022/08/28 11:20:19;;;;;;;6.70;2.00;;;;;;;21.85;47.16;102067.38;5053557;28;20025;-73
2022/08/28 11:22:49;;;;;;;6.75;2.00;;;;;;;21.48;49.12;102077.16;5053403;28;20420;-73
2022/08/28 11:25:21;;;;;;;3.97;1.52;;;;;;;21.72;48.37;102062.69;5053409;28;20029;-73
2022/08/28 11:28:18;;;;;;;7.13;1.70;;;;;;;22.29;48.98;102061.53;5052987;28;20075;-72
2022/08/28 11:31:08;;;;;;;8.82;1.85;;;;;;;22.70;44.34;102066.41;5053432;28;20047;-72
2022/08/28 11:33:39;;;;;;;5.40;2.08;;;;;;;23.23;45.72;102067.88;5053158;28;20037;-73
2022/08/28 11:36:31;;;;;;;4.82;2.00;;;;;;;23.72;44.64;102073.03;5025370;28;20049;-73
2022/08/28 11:38:56;;;;;;;4.97;1.70;;;;;;;24.10;44.73;102064.53;5053441;28;20053;-73
2022/08/28 11:41:23;;;;;;;4.20;1.85;;;;;;;24.49;40.86;102059.44;5052762;28;20057;-73